Time;durP1;ratioP1;P1;durP2;ratioP2;P2;SDS_P1;SDS_P2;PMS_P1;PMS_P2;Temp;Humidity;BMP_temperature;BMP_pressure;BME280_temperature;BME280_humidity;BME280_pressure;Samples;Min_cycle;Max_cycle;Signal;HPM_P1;HPM_P2
2021/12/08 00:01:11;;;;;;;10.23;4.70;;;4.50;99.90;;;;;;5089888;28;20253;-79
2021/12/08 00:03:38;;;;;;;11.07;4.93;;;4.50;99.90;;;;;;5091232;28;20258;-80
2021/12/08 00:06:08;;;;;;;6.77;4.50;;;4.50;99.90;;;;;;5091482;28;20210;-79
2021/12/08 00:08:35;;;;;;;8.60;4.70;;;4.50;99.90;;;;;;5090948;28;20753;-78
2021/12/08 00:13:50;;;;;;;12.03;4.30;;;4.50;99.90;;;;;;5090485;28;20215;-78
2021/12/08 00:16:17;;;;;;;9.37;4.90;;;4.50;99.90;;;;;;5090531;28;20417;-79
2021/12/08 00:18:47;;;;;;;12.10;5.07;;;4.50;99.90;;;;;;5072640;28;20239;-78
2021/12/08 00:21:16;;;;;;;9.63;5.17;;;4.50;99.90;;;;;;5091253;28;20504;-78
2021/12/08 00:23:44;;;;;;;9.47;4.37;;;4.50;99.90;;;;;;5072496;28;20215;-80
2021/12/08 00:26:11;;;;;;;11.27;5.20;;;4.50;99.90;;;;;;5090903;28;20246;-79
2021/12/08 00:28:38;;;;;;;9.63;4.83;;;4.40;99.90;;;;;;5091097;28;20247;-79
2021/12/08 00:31:06;;;;;;;11.53;5.10;;;4.50;99.90;;;;;;5090527;28;20207;-79
2021/12/08 00:33:35;;;;;;;14.83;5.87;;;4.50;99.90;;;;;;5090675;28;20231;-80
2021/12/08 00:36:05;;;;;;;12.33;5.30;;;4.50;99.90;;;;;;5090822;28;20647;-78
2021/12/08 00:38:33;;;;;;;11.93;5.13;;;4.40;99.90;;;;;;5090858;28;20302;-80
2021/12/08 00:41:00;;;;;;;11.07;5.20;;;4.40;99.90;;;;;;5072442;28;20722;-80
2021/12/08 00:43:27;;;;;;;9.73;5.03;;;4.50;99.90;;;;;;5090864;28;20301;-80
2021/12/08 00:45:54;;;;;;;14.63;5.73;;;4.50;99.90;;;;;;5090400;28;20212;-80
2021/12/08 00:48:22;;;;;;;8.57;5.40;;;4.50;99.90;;;;;;5090749;28;20234;-78
2021/12/08 00:50:50;;;;;;;10.27;6.03;;;4.50;99.90;;;;;;5090150;28;20253;-78
2021/12/08 00:53:17;;;;;;;12.43;5.87;;;4.50;99.90;;;;;;5089882;28;20275;-79
2021/12/08 00:55:44;;;;;;;13.37;6.27;;;4.50;99.90;;;;;;5089722;28;20688;-78
2021/12/08 00:58:11;;;;;;;14.00;5.10;;;4.50;99.90;;;;;;5090248;28;20744;-79
2021/12/08 01:00:45;;;;;;;11.60;6.37;;;4.60;99.90;;;;;;5088728;28;20689;-78
2021/12/08 01:03:14;;;;;;;16.10;6.30;;;4.50;99.90;;;;;;5089684;28;20624;-78
2021/12/08 01:05:55;;;;;;;13.43;6.23;;;4.50;99.90;;;;;;5071761;28;20215;-78
2021/12/08 01:08:26;;;;;;;12.00;6.67;;;4.50;99.90;;;;;;5090075;28;20209;-78
2021/12/08 01:10:56;;;;;;;12.53;7.00;;;4.50;99.90;;;;;;5090832;28;20216;-79
2021/12/08 01:13:24;;;;;;;9.73;6.50;;;4.60;99.90;;;;;;5072673;28;20578;-78
2021/12/08 01:15:53;;;;;;;10.53;6.50;;;4.50;99.90;;;;;;5092052;28;20289;-77
2021/12/08 01:18:21;;;;;;;11.30;6.30;;;4.50;99.90;;;;;;5091802;28;20306;-78
2021/12/08 01:20:49;;;;;;;12.83;6.93;;;4.50;99.90;;;;;;5090242;28;20209;-78
2021/12/08 01:23:16;;;;;;;11.80;7.33;;;4.50;99.90;;;;;;5089134;28;20685;-76
2021/12/08 01:25:44;;;;;;;13.07;7.33;;;4.50;99.90;;;;;;5089467;28;20211;-77
2021/12/08 01:28:11;;;;;;;9.27;6.57;;;4.50;99.90;;;;;;5088812;28;20204;-79
2021/12/08 01:30:39;;;;;;;13.10;7.50;;;4.60;99.90;;;;;;5089102;28;20255;-78
2021/12/08 01:33:06;;;;;;;13.10;7.40;;;4.50;99.90;;;;;;5089546;28;20216;-79
2021/12/08 01:35:34;;;;;;;16.73;7.80;;;4.60;99.90;;;;;;5089889;28;20215;-77
2021/12/08 01:38:01;;;;;;;16.40;8.30;;;4.60;99.90;;;;;;5091137;28;20246;-78
2021/12/08 01:40:33;;;;;;;14.57;8.67;;;4.60;99.90;;;;;;5074355;28;20230;-79
2021/12/08 01:43:02;;;;;;;15.23;7.97;;;4.60;99.90;;;;;;5090066;28;20256;-78
2021/12/08 01:48:19;;;;;;;14.90;8.03;;;4.60;99.90;;;;;;5089785;28;20506;-80
2021/12/08 01:50:49;;;;;;;13.87;8.27;;;4.60;99.90;;;;;;5089325;28;20208;-79
2021/12/08 01:53:17;;;;;;;13.97;8.60;;;4.70;99.90;;;;;;5091336;28;20299;-76
2021/12/08 01:55:44;;;;;;;16.73;8.80;;;4.70;99.90;;;;;;5090035;28;20711;-78
2021/12/08 01:58:12;;;;;;;16.60;8.60;;;4.70;99.90;;;;;;5089430;28;20204;-78
2021/12/08 02:00:43;;;;;;;12.90;8.63;;;4.70;99.90;;;;;;5088522;28;20352;-79
2021/12/08 02:03:11;;;;;;;14.07;8.77;;;4.80;99.90;;;;;;5088671;28;20228;-78
2021/12/08 02:05:38;;;;;;;16.47;9.70;;;4.80;99.90;;;;;;5086215;28;20204;-79
2021/12/08 02:08:06;;;;;;;17.30;9.13;;;4.80;99.90;;;;;;5094964;28;20618;-80
2021/12/08 02:10:33;;;;;;;18.40;9.50;;;4.80;99.90;;;;;;5078653;28;20512;-78
2021/12/08 02:13:02;;;;;;;15.60;9.60;;;4.80;99.90;;;;;;5096958;28;20235;-79
2021/12/08 02:15:33;;;;;;;14.50;8.73;;;4.90;99.90;;;;;;5085117;28;20213;-79
2021/12/08 02:18:00;;;;;;;17.03;9.23;;;4.80;99.90;;;;;;5103635;28;20242;-79
2021/12/08 02:20:28;;;;;;;21.17;10.47;;;4.90;99.90;;;;;;5101771;28;20234;-79
2021/12/08 02:22:56;;;;;;;16.37;9.20;;;4.90;99.90;;;;;;5079514;28;20203;-78
2021/12/08 02:25:26;;;;;;;15.73;10.20;;;5.00;99.90;;;;;;5077168;28;20214;-78
2021/12/08 02:27:56;;;;;;;20.03;10.17;;;5.00;99.90;;;;;;5098241;28;20260;-79
2021/12/08 02:30:44;;;;;;;18.70;10.77;;;5.00;99.90;;;;;;5076196;28;20217;-81
2021/12/08 02:49:56;;;;;;;21.70;10.10;;;5.30;99.90;;;;;;5103738;28;20272;-79
2021/12/08 02:52:23;;;;;;;20.90;10.63;;;5.30;99.90;;;;;;5093665;28;20231;-79
2021/12/08 02:54:51;;;;;;;16.30;10.30;;;5.30;99.90;;;;;;5092081;28;20239;-81
2021/12/08 02:57:25;;;;;;;15.57;9.90;;;5.40;99.90;;;;;;5092110;28;20314;-79
2021/12/08 02:59:52;;;;;;;16.03;9.50;;;5.40;99.90;;;;;;5091649;28;20267;-81
2021/12/08 03:02:19;;;;;;;22.70;9.60;;;5.40;99.90;;;;;;5091759;28;20304;-80
2021/12/08 03:04:49;;;;;;;18.97;9.27;;;5.40;99.90;;;;;;5092283;28;20728;-78
2021/12/08 03:07:16;;;;;;;17.67;9.77;;;5.50;99.90;;;;;;5073969;28;20265;-79
2021/12/08 03:09:43;;;;;;;15.47;9.07;;;5.50;99.90;;;;;;5091777;28;20663;-79
2021/12/08 03:12:10;;;;;;;14.73;8.87;;;5.50;99.90;;;;;;5073944;28;20259;-78
2021/12/08 03:14:37;;;;;;;16.17;8.90;;;5.60;99.90;;;;;;5091440;28;20299;-78
2021/12/08 03:17:07;;;;;;;13.83;8.73;;;5.60;99.90;;;;;;5091913;28;20286;-78
2021/12/08 03:19:34;;;;;;;15.67;8.43;;;5.70;99.90;;;;;;5092240;28;20754;-79
2021/12/08 03:22:08;;;;;;;17.40;9.43;;;5.70;99.90;;;;;;5073096;28;20276;-80
2021/12/08 03:24:38;;;;;;;19.07;8.97;;;5.70;99.90;;;;;;5092045;28;20270;-80
2021/12/08 03:27:14;;;;;;;16.33;8.90;;;5.80;99.90;;;;;;5085592;28;20567;-80
2021/12/08 03:29:55;;;;;;;15.97;9.63;;;5.80;99.90;;;;;;5092447;28;20299;-79
2021/12/08 03:32:37;;;;;;;15.03;8.80;;;5.90;99.90;;;;;;5096349;28;20254;-79
2021/12/08 03:35:13;;;;;;;16.57;9.03;;;5.90;99.90;;;;;;5099978;28;20235;-78
2021/12/08 03:37:43;;;;;;;16.70;8.83;;;5.90;99.90;;;;;;5100274;28;20218;-79
2021/12/08 03:40:17;;;;;;;18.40;9.43;;;6.00;99.90;;;;;;5096606;28;20232;-79
2021/12/08 03:42:46;;;;;;;22.27;9.73;;;6.10;99.90;;;;;;5074013;28;20255;-79
2021/12/08 03:45:22;;;;;;;24.20;9.73;;;6.00;99.90;;;;;;5075367;28;20246;-79
2021/12/08 03:47:58;;;;;;;17.93;9.40;;;6.10;99.90;;;;;;5076442;28;20629;-78
2021/12/08 03:50:25;;;;;;;14.90;8.17;;;6.10;99.90;;;;;;5094898;28;20214;-80
2021/12/08 03:52:53;;;;;;;17.73;8.33;;;6.10;99.90;;;;;;5094429;28;20203;-78
2021/12/08 03:55:20;;;;;;;16.13;8.93;;;6.10;99.90;;;;;;5095203;28;20300;-79
2021/12/08 03:57:47;;;;;;;22.33;8.03;;;6.10;99.90;;;;;;5094879;28;20614;-77
2021/12/08 04:00:18;;;;;;;20.27;8.97;;;6.00;99.90;;;;;;5093917;28;20311;-79
2021/12/08 04:02:46;;;;;;;19.93;8.60;;;6.00;99.90;;;;;;5093175;28;20220;-77
2021/12/08 04:05:19;;;;;;;19.13;8.33;;;6.00;99.90;;;;;;5092043;28;20705;-78
2021/12/08 04:07:47;;;;;;;11.47;6.93;;;6.00;99.90;;;;;;5086343;28;20209;-77
2021/12/08 04:10:20;;;;;;;17.50;7.00;;;6.00;99.90;;;;;;5092011;28;20274;-78
2021/12/08 04:12:52;;;;;;;12.07;6.23;;;6.00;99.90;;;;;;5073984;28;20237;-78
2021/12/08 04:15:22;;;;;;;16.97;6.10;;;6.00;99.90;;;;;;5092649;28;20647;-79
2021/12/08 04:17:54;;;;;;;12.43;6.10;;;5.90;99.90;;;;;;5092798;28;20295;-78
2021/12/08 04:20:28;;;;;;;12.93;5.97;;;5.90;99.90;;;;;;5092505;28;20315;-78
2021/12/08 04:22:56;;;;;;;12.83;5.73;;;5.90;99.90;;;;;;5094142;28;20301;-78
2021/12/08 04:25:28;;;;;;;12.93;5.40;;;5.90;99.90;;;;;;5091670;28;20259;-79
2021/12/08 04:27:58;;;;;;;13.73;5.27;;;5.90;99.90;;;;;;5091740;28;20250;-80
2021/12/08 04:30:33;;;;;;;12.43;5.27;;;5.90;99.90;;;;;;5087064;28;20710;-79
2021/12/08 04:33:04;;;;;;;10.93;5.27;;;5.90;99.90;;;;;;5090062;28;20227;-80
2021/12/08 04:35:31;;;;;;;10.23;5.50;;;5.90;99.90;;;;;;5091006;28;20214;-80
2021/12/08 04:38:03;;;;;;;10.60;4.67;;;5.90;99.90;;;;;;5090617;28;20207;-78
2021/12/08 04:40:50;;;;;;;12.17;5.10;;;5.90;99.90;;;;;;5084632;28;20718;-78
2021/12/08 04:43:26;;;;;;;10.07;4.43;;;5.90;99.90;;;;;;5086988;28;20239;-80
2021/12/08 04:46:30;;;;;;;13.63;4.73;;;6.00;99.90;;;;;;5089540;28;20314;-81
2021/12/08 05:00:29;;;;;;;10.93;4.57;;;6.10;99.90;;;;;;5085222;28;20778;-80
2021/12/08 05:05:59;;;;;;;11.60;4.30;;;6.00;99.90;;;;;;5089732;28;20291;-78
2021/12/08 05:08:34;;;;;;;11.97;4.20;;;6.00;99.90;;;;;;5085855;28;20302;-79
2021/12/08 05:11:01;;;;;;;11.30;4.27;;;5.90;99.90;;;;;;5089332;28;20200;-80
2021/12/08 05:13:28;;;;;;;8.63;4.40;;;6.00;99.90;;;;;;5089462;28;20290;-80
2021/12/08 05:15:56;;;;;;;9.57;4.27;;;5.90;99.90;;;;;;5089377;28;20320;-79
2021/12/08 05:18:28;;;;;;;10.20;4.00;;;5.80;99.90;;;;;;5089338;28;20265;-80
2021/12/08 05:21:04;;;;;;;6.70;4.10;;;5.80;99.90;;;;;;5089827;28;20314;-77
2021/12/08 05:23:36;;;;;;;15.90;5.33;;;5.80;99.90;;;;;;5071918;28;20207;-78
2021/12/08 05:26:12;;;;;;;10.10;3.80;;;5.80;99.90;;;;;;5082760;28;20294;-79
2021/12/08 05:28:40;;;;;;;6.90;4.30;;;5.70;99.90;;;;;;5082857;28;20290;-78
2021/12/08 05:31:15;;;;;;;13.87;4.17;;;5.70;99.90;;;;;;5082849;28;20204;-79
2021/12/08 05:33:44;;;;;;;15.17;3.57;;;5.70;99.90;;;;;;5071620;28;20606;-78
2021/12/08 05:36:13;;;;;;;9.57;3.83;;;5.60;99.90;;;;;;5089147;28;20211;-79
2021/12/08 05:38:40;;;;;;;5.07;2.93;;;5.60;99.90;;;;;;5071002;28;20637;-79
2021/12/08 05:41:09;;;;;;;9.33;3.73;;;5.60;99.90;;;;;;5089469;28;20312;-79
2021/12/08 05:43:37;;;;;;;13.97;3.70;;;5.60;99.90;;;;;;5089073;28;20311;-79
2021/12/08 05:46:09;;;;;;;7.47;3.10;;;5.50;99.90;;;;;;5088880;28;20210;-79
2021/12/08 05:48:36;;;;;;;9.53;3.20;;;5.50;99.90;;;;;;5088899;28;20222;-78
2021/12/08 05:51:27;;;;;;;9.80;3.17;;;5.50;99.90;;;;;;5089386;28;20291;-79
2021/12/08 05:53:58;;;;;;;10.03;3.30;;;5.40;99.90;;;;;;5088524;28;20243;-79
2021/12/08 05:56:28;;;;;;;7.73;2.77;;;5.40;99.90;;;;;;5088941;28;20723;-79
2021/12/08 05:58:56;;;;;;;9.97;3.30;;;5.30;99.90;;;;;;5090736;28;20294;-79
2021/12/08 06:01:38;;;;;;;7.43;2.93;;;5.30;99.90;;;;;;5071281;28;20229;-78
2021/12/08 06:04:06;;;;;;;7.93;3.40;;;5.30;99.90;;;;;;5087892;28;20718;-78
2021/12/08 06:06:34;;;;;;;9.47;3.70;;;5.30;99.90;;;;;;5088607;28;20214;-78
2021/12/08 06:09:05;;;;;;;10.30;3.47;;;5.30;99.90;;;;;;5087969;28;20187;-78
2021/12/08 06:11:32;;;;;;;9.40;3.20;;;5.30;99.90;;;;;;5088658;28;20679;-78
2021/12/08 06:14:02;;;;;;;5.57;3.03;;;5.30;99.90;;;;;;5070117;28;20322;-78
2021/12/08 06:16:32;;;;;;;8.60;2.90;;;5.30;99.90;;;;;;5089437;28;20573;-78
2021/12/08 06:18:59;;;;;;;10.07;3.10;;;5.30;99.90;;;;;;5088739;28;20213;-78
2021/12/08 06:21:29;;;;;;;10.23;3.27;;;5.30;99.90;;;;;;5085147;28;20232;-79
2021/12/08 06:23:57;;;;;;;7.40;2.93;;;5.30;99.90;;;;;;5085636;28;20250;-78
2021/12/08 06:26:25;;;;;;;6.80;3.00;;;5.30;99.90;;;;;;5089015;28;20552;-78
2021/12/08 06:28:53;;;;;;;14.10;4.00;;;5.30;99.90;;;;;;5083073;28;20632;-79
2021/12/08 06:31:22;;;;;;;9.10;3.23;;;5.30;99.90;;;;;;5086941;28;20211;-78
2021/12/08 06:33:49;;;;;;;5.83;2.73;;;5.30;99.90;;;;;;5081166;28;20219;-79
2021/12/08 06:36:22;;;;;;;11.77;2.77;;;5.30;99.90;;;;;;5070390;28;20645;-79
2021/12/08 06:38:49;;;;;;;10.10;3.17;;;5.30;99.90;;;;;;5084337;28;20200;-79
2021/12/08 06:41:41;;;;;;;7.73;2.47;;;5.20;99.90;;;;;;5088218;28;20273;-80
2021/12/08 06:44:17;;;;;;;11.13;2.70;;;5.20;99.90;;;;;;5088249;28;20208;-78
2021/12/08 06:46:44;;;;;;;7.67;2.83;;;5.20;99.90;;;;;;5090508;28;20295;-78
2021/12/08 06:49:13;;;;;;;9.13;3.00;;;5.30;99.90;;;;;;5086568;28;20670;-79
2021/12/08 06:51:45;;;;;;;9.33;2.40;;;5.20;99.90;;;;;;5094410;28;20231;-78
2021/12/08 06:54:24;;;;;;;10.52;3.50;;;5.20;99.90;;;;;;5084809;28;20472;-79
2021/12/08 06:56:56;;;;;;;9.50;2.63;;;5.30;99.90;;;;;;5102363;28;20211;-78
2021/12/08 06:59:31;;;;;;;5.83;2.30;;;5.30;99.90;;;;;;5108686;28;20188;-78
2021/12/08 07:02:08;;;;;;;8.77;2.80;;;5.30;99.90;;;;;;5107783;28;20260;-80
2021/12/08 07:05:08;;;;;;;9.77;2.77;;;5.20;99.90;;;;;;5101787;28;20206;-79
2021/12/08 07:07:35;;;;;;;7.53;2.43;;;5.10;99.90;;;;;;5086247;28;20634;-78
2021/12/08 07:10:22;;;;;;;3.40;2.30;;;5.10;99.90;;;;;;5091260;28;20226;-80
2021/12/08 07:12:57;;;;;;;7.33;2.47;;;5.10;99.90;;;;;;5102736;28;20251;-78
2021/12/08 07:15:41;;;;;;;5.27;2.53;;;5.00;99.90;;;;;;5105779;28;20215;-77
2021/12/08 07:18:14;;;;;;;6.77;2.60;;;5.00;99.90;;;;;;5100739;28;20277;-78
2021/12/08 07:20:47;;;;;;;8.17;2.50;;;4.90;99.90;;;;;;5096276;28;20284;-79
2021/12/08 07:23:41;;;;;;;6.97;2.00;;;4.90;99.90;;;;;;5091836;28;20242;-79
2021/12/08 07:26:13;;;;;;;11.07;2.50;;;4.90;99.90;;;;;;5091453;28;20221;-78
2021/12/08 07:28:41;;;;;;;11.50;2.33;;;4.80;99.90;;;;;;5091456;28;20232;-81
2021/12/08 07:31:32;;;;;;;9.03;2.37;;;4.80;99.90;;;;;;5091920;28;20302;-79
2021/12/08 07:34:05;;;;;;;13.97;2.93;;;4.80;99.90;;;;;;5075677;28;20264;-81
2021/12/08 07:36:41;;;;;;;7.20;2.20;;;4.80;99.90;;;;;;5081559;28;20201;-79
2021/12/08 07:39:14;;;;;;;7.00;2.10;;;4.70;99.90;;;;;;5073534;28;20210;-78
2021/12/08 07:41:45;;;;;;;6.37;2.40;;;4.70;99.90;;;;;;5090852;28;20226;-78
2021/12/08 07:44:14;;;;;;;10.67;2.70;;;4.70;99.90;;;;;;5091308;28;20203;-80
2021/12/08 07:46:51;;;;;;;9.23;2.73;;;4.70;99.90;;;;;;5093154;28;20208;-77
2021/12/08 07:49:25;;;;;;;8.87;2.33;;;4.70;99.90;;;;;;5077579;28;20262;-79
2021/12/08 07:51:59;;;;;;;7.13;2.10;;;4.70;99.90;;;;;;5080852;28;20732;-78
2021/12/08 07:54:28;;;;;;;13.10;2.50;;;4.70;99.90;;;;;;5070816;28;20261;-80
2021/12/08 07:57:00;;;;;;;8.53;3.10;;;4.70;99.90;;;;;;5088132;28;20594;-78
2021/12/08 07:59:27;;;;;;;7.70;2.90;;;4.70;99.90;;;;;;5087852;28;20215;-78
2021/12/08 08:01:58;;;;;;;8.73;2.57;;;4.70;99.90;;;;;;5086643;28;20234;-79
2021/12/08 08:04:28;;;;;;;7.60;3.23;;;4.70;99.90;;;;;;5091275;28;20645;-78
2021/12/08 08:06:59;;;;;;;10.43;2.40;;;4.70;99.90;;;;;;5090338;28;20208;-78
2021/12/08 08:09:31;;;;;;;13.43;2.87;;;4.80;99.90;;;;;;5084580;28;20315;-78
2021/12/08 08:12:01;;;;;;;7.33;2.50;;;4.80;99.90;;;;;;5087554;28;20658;-79
2021/12/08 08:14:38;;;;;;;11.20;2.40;;;4.90;99.90;;;;;;5086493;28;20212;-79
2021/12/08 08:17:08;;;;;;;13.33;2.70;;;4.90;99.90;;;;;;5071027;28;20737;-79
2021/12/08 08:19:42;;;;;;;13.53;2.43;;;5.00;99.90;;;;;;5067235;28;20200;-80
2021/12/08 08:22:16;;;;;;;11.53;2.30;;;5.00;99.90;;;;;;5078237;28;20507;-79
2021/12/08 08:24:43;;;;;;;8.00;2.30;;;5.10;99.90;;;;;;5087239;28;20257;-82
2021/12/08 08:27:12;;;;;;;7.73;2.10;;;5.10;99.90;;;;;;5089567;28;20205;-77
2021/12/08 08:29:39;;;;;;;12.03;2.43;;;5.10;99.90;;;;;;5085009;28;20884;-78
2021/12/08 08:32:10;;;;;;;14.43;2.67;;;5.20;99.90;;;;;;5082208;28;20556;-79
2021/12/08 08:34:41;;;;;;;8.37;2.50;;;5.20;99.90;;;;;;5069715;28;20208;-79
2021/12/08 08:37:11;;;;;;;13.73;2.40;;;5.20;99.90;;;;;;5080179;28;20192;-79
2021/12/08 08:39:51;;;;;;;6.27;2.20;;;5.30;99.90;;;;;;5086802;28;20203;-80
2021/12/08 08:42:28;;;;;;;14.70;3.03;;;5.30;99.90;;;;;;5071337;28;20650;-79
2021/12/08 08:45:26;;;;;;;9.80;2.40;;;5.30;99.90;;;;;;5069702;28;20206;-79
2021/12/08 08:48:05;;;;;;;9.13;2.30;;;5.20;99.90;;;;;;5066150;28;20217;-79
2021/12/08 08:51:00;;;;;;;6.87;2.87;;;5.30;99.90;;;;;;5088873;28;20204;-78
2021/12/08 08:53:31;;;;;;;8.27;2.13;;;5.30;99.90;;;;;;5087358;28;20241;-79
2021/12/08 08:56:11;;;;;;;6.97;2.70;;;5.20;99.90;;;;;;5069085;28;20224;-78
2021/12/08 08:58:43;;;;;;;9.43;2.13;;;5.20;99.90;;;;;;5088282;28;20203;-79
2021/12/08 09:01:20;;;;;;;10.43;2.33;;;5.10;99.90;;;;;;5085161;28;20282;-79
2021/12/08 09:03:58;;;;;;;6.07;2.43;;;5.20;99.90;;;;;;5086709;28;20238;-79
2021/12/08 09:06:31;;;;;;;15.90;3.33;;;5.20;99.90;;;;;;5085660;28;20608;-79
2021/12/08 09:09:03;;;;;;;12.03;2.40;;;5.20;99.90;;;;;;5082384;28;20296;-79
2021/12/08 09:11:35;;;;;;;6.03;2.53;;;5.20;99.90;;;;;;5087913;28;20249;-79
2021/12/08 09:14:18;;;;;;;9.90;2.53;;;5.20;99.90;;;;;;5065461;28;20202;-80
2021/12/08 09:16:52;;;;;;;13.63;2.63;;;5.20;99.90;;;;;;5074254;28;20642;-79
2021/12/08 09:19:35;;;;;;;13.63;2.50;;;5.30;99.90;;;;;;5060749;28;20216;-79
2021/12/08 09:22:02;;;;;;;10.40;2.60;;;5.30;99.90;;;;;;5087460;28;20270;-79
2021/12/08 09:24:50;;;;;;;8.67;2.50;;;5.20;99.90;;;;;;5089614;28;20294;-79
2021/12/08 09:27:28;;;;;;;11.30;2.67;;;5.20;99.90;;;;;;5081756;28;20209;-79
2021/12/08 09:30:32;;;;;;;7.00;2.57;;;5.20;99.90;;;;;;5088508;28;20235;-79
2021/12/08 09:33:05;;;;;;;10.03;3.40;;;5.20;99.90;;;;;;5084562;28;20237;-79
2021/12/08 09:35:45;;;;;;;7.17;2.53;;;5.20;99.90;;;;;;5087895;28;20297;-78
2021/12/08 09:38:29;;;;;;;5.63;2.70;;;5.20;99.90;;;;;;5067417;28;20206;-79
2021/12/08 09:41:00;;;;;;;7.20;2.60;;;5.20;99.90;;;;;;5064736;28;20227;-78
2021/12/08 09:43:41;;;;;;;9.60;2.70;;;5.20;99.90;;;;;;5089275;28;20602;-80
2021/12/08 09:46:35;;;;;;;10.37;3.13;;;5.20;99.90;;;;;;5084519;28;20309;-80
2021/12/08 09:49:03;;;;;;;12.50;2.70;;;5.20;99.90;;;;;;5084962;28;20227;-80
2021/12/08 09:51:31;;;;;;;11.97;2.90;;;5.20;99.90;;;;;;5068000;28;20286;-78
2021/12/08 09:53:59;;;;;;;7.30;2.20;;;5.20;99.90;;;;;;5086617;28;20262;-79
2021/12/08 09:56:27;;;;;;;8.67;2.77;;;5.20;99.90;;;;;;5088205;28;20229;-80
2021/12/08 09:58:55;;;;;;;12.80;2.83;;;5.20;99.90;;;;;;5087250;28;20326;-79
2021/12/08 10:01:24;;;;;;;10.47;2.60;;;5.30;99.90;;;;;;5080749;28;20241;-79
2021/12/08 10:03:54;;;;;;;8.33;3.07;;;5.30;99.90;;;;;;5088351;28;20212;-78
2021/12/08 10:06:23;;;;;;;15.83;2.97;;;5.30;99.90;;;;;;5083861;28;20215;-80
2021/12/08 10:08:51;;;;;;;12.10;4.27;;;5.30;99.90;;;;;;5085980;28;20199;-79
2021/12/08 10:11:18;;;;;;;6.07;2.20;;;5.30;99.90;;;;;;5083944;28;20294;-80
2021/12/08 10:13:46;;;;;;;4.60;2.43;;;5.30;99.90;;;;;;5088501;28;20275;-80
2021/12/08 10:16:14;;;;;;;7.90;2.30;;;5.40;99.90;;;;;;5087329;28;20670;-80
2021/12/08 10:18:43;;;;;;;8.63;2.37;;;5.40;99.90;;;;;;5072384;28;20594;-79
2021/12/08 10:21:10;;;;;;;6.40;2.37;;;5.40;99.90;;;;;;5074365;28;20235;-78
2021/12/08 10:23:39;;;;;;;8.87;1.97;;;5.40;99.90;;;;;;5088731;28;20188;-79
2021/12/08 10:26:14;;;;;;;7.80;2.60;;;5.50;99.90;;;;;;5088278;28;20199;-79
2021/12/08 10:28:44;;;;;;;3.93;2.03;;;5.50;99.90;;;;;;5088798;28;20202;-81
2021/12/08 10:31:16;;;;;;;7.47;2.50;;;5.50;99.90;;;;;;5082837;28;20290;-80
2021/12/08 10:36:44;;;;;;;7.57;2.40;;;5.60;99.90;;;;;;5089613;28;20238;-81
2021/12/08 10:39:19;;;;;;;7.97;2.77;;;5.60;99.90;;;;;;5090506;28;20199;-81
2021/12/08 10:42:09;;;;;;;9.13;2.00;;;5.60;99.90;;;;;;5089563;28;20222;-80
2021/12/08 10:45:23;;;;;;;5.93;2.87;;;5.60;99.90;;;;;;5072787;28;20654;-80
2021/12/08 10:47:55;;;;;;;11.40;2.63;;;5.70;99.90;;;;;;4985165;28;20313;-80
2021/12/08 10:56:08;;;;;;;7.27;2.60;;;5.70;99.90;;;;;;5086691;28;20742;-83
2021/12/08 10:58:39;;;;;;;4.63;2.30;;;5.80;99.90;;;;;;5090221;28;20219;-80
2021/12/08 11:01:16;;;;;;;6.23;2.30;;;5.80;99.90;;;;;;5086916;28;20262;-82
2021/12/08 11:03:45;;;;;;;8.13;2.27;;;5.80;99.90;;;;;;5092287;28;20222;-80
2021/12/08 11:06:15;;;;;;;8.10;2.40;;;5.80;99.90;;;;;;5085805;28;20206;-81
2021/12/08 11:08:44;;;;;;;10.67;2.43;;;5.90;99.90;;;;;;5074808;28;20200;-80
2021/12/08 11:11:14;;;;;;;6.67;2.90;;;5.80;99.90;;;;;;5097444;28;20208;-82
2021/12/08 11:13:47;;;;;;;7.10;2.10;;;5.90;99.90;;;;;;5092260;28;20196;-81
2021/12/08 11:16:24;;;;;;;5.17;2.10;;;5.90;99.90;;;;;;5092354;28;20200;-81
2021/12/08 11:19:01;;;;;;;6.67;2.20;;;6.00;99.90;;;;;;5071385;28;20228;-79
2021/12/08 11:21:37;;;;;;;5.70;2.60;;;6.00;99.90;;;;;;5080590;28;20251;-80
2021/12/08 11:24:18;;;;;;;7.33;1.70;;;6.10;99.90;;;;;;5089638;28;20703;-80
2021/12/08 11:26:48;;;;;;;9.13;2.40;;;6.10;99.90;;;;;;5091387;28;20199;-79
2021/12/08 11:29:17;;;;;;;10.00;2.80;;;6.10;99.90;;;;;;5074195;28;20296;-81
2021/12/08 11:32:02;;;;;;;5.90;2.07;;;6.20;99.90;;;;;;5084178;28;20235;-79
2021/12/08 11:34:31;;;;;;;5.43;2.00;;;6.20;99.90;;;;;;5061005;28;20215;-81
2021/12/08 11:37:08;;;;;;;4.27;1.80;;;6.20;99.90;;;;;;5092393;28;20269;-80
2021/12/08 11:39:45;;;;;;;6.90;2.77;;;6.20;99.90;;;;;;5071965;28;20655;-81
2021/12/08 11:42:26;;;;;;;8.37;2.30;;;6.30;99.90;;;;;;5082175;28;20226;-80
2021/12/08 11:44:56;;;;;;;5.80;1.90;;;6.40;99.90;;;;;;5091388;28;20302;-82
2021/12/08 11:47:28;;;;;;;5.93;1.90;;;6.50;99.90;;;;;;5091270;28;20583;-81
2021/12/08 11:50:07;;;;;;;5.80;1.90;;;6.60;99.90;;;;;;5088677;28;20259;-80
2021/12/08 11:52:34;;;;;;;6.27;1.93;;;6.80;99.90;;;;;;5091199;28;20665;-81
2021/12/08 11:55:17;;;;;;;6.23;1.90;;;6.80;99.90;;;;;;5090224;28;20272;-80
2021/12/08 11:57:47;;;;;;;6.77;2.33;;;6.90;99.90;;;;;;5088214;28;20612;-80
2021/12/08 12:00:19;;;;;;;6.63;2.47;;;6.90;99.90;;;;;;5086858;28;20205;-80
2021/12/08 12:03:00;;;;;;;8.47;2.20;;;6.90;99.90;;;;;;5065765;28;20527;-81
2021/12/08 12:05:35;;;;;;;7.60;1.73;;;6.90;99.90;;;;;;5070163;28;20195;-80
2021/12/08 12:08:05;;;;;;;3.30;1.60;;;6.90;99.90;;;;;;5089195;28;20206;-80
2021/12/08 12:10:39;;;;;;;8.63;2.00;;;7.00;99.90;;;;;;5090556;28;20242;-80
2021/12/08 12:13:10;;;;;;;4.37;2.20;;;7.00;99.90;;;;;;5088048;28;20257;-81
2021/12/08 12:15:40;;;;;;;4.83;2.00;;;7.10;99.90;;;;;;5089667;28;20579;-81
2021/12/08 12:18:07;;;;;;;5.73;2.23;;;7.10;99.90;;;;;;5091043;28;20940;-80
2021/12/08 12:20:44;;;;;;;6.37;2.57;;;7.10;99.90;;;;;;5089488;28;20204;-80
2021/12/08 12:23:48;;;;;;;3.73;2.30;;;7.30;99.90;;;;;;5071727;28;20227;-79
2021/12/08 12:26:31;;;;;;;5.93;2.70;;;7.20;99.90;;;;;;5090561;28;20207;-80
2021/12/08 12:29:14;;;;;;;5.87;2.67;;;7.20;99.90;;;;;;5090420;28;20199;-81
2021/12/08 12:31:48;;;;;;;7.13;2.57;;;7.10;99.90;;;;;;5087358;28;20206;-79
2021/12/08 12:34:27;;;;;;;9.67;2.93;;;7.10;99.90;;;;;;5094293;28;20214;-81
2021/12/08 12:36:55;;;;;;;4.53;3.00;;;7.10;99.90;;;;;;5076444;28;20195;-80
2021/12/08 12:39:26;;;;;;;7.97;2.90;;;7.00;99.90;;;;;;5090007;28;20260;-80
2021/12/08 12:42:11;;;;;;;8.53;3.10;;;7.10;99.90;;;;;;5070350;28;20272;-79
2021/12/08 12:44:42;;;;;;;9.93;3.33;;;7.10;99.90;;;;;;5076634;28;20198;-81
2021/12/08 12:47:25;;;;;;;4.50;2.87;;;7.00;99.90;;;;;;5098493;28;20345;-79
2021/12/08 12:50:04;;;;;;;10.23;3.70;;;7.00;99.90;;;;;;5091749;28;20196;-81
2021/12/08 12:52:40;;;;;;;5.10;3.17;;;7.00;99.90;;;;;;5084990;28;20204;-81
2021/12/08 12:55:13;;;;;;;8.13;2.97;;;7.00;99.90;;;;;;5089960;28;20239;-81
2021/12/08 12:58:04;;;;;;;6.93;2.63;;;7.00;99.90;;;;;;5084557;28;20302;-82
2021/12/08 13:00:36;;;;;;;6.33;2.80;;;7.00;99.90;;;;;;5070696;28;20209;-82
2021/12/08 13:03:06;;;;;;;4.30;2.40;;;7.10;99.90;;;;;;5084181;28;20259;-81
2021/12/08 13:05:50;;;;;;;8.57;2.70;;;7.10;99.90;;;;;;5073971;28;20716;-80
2021/12/08 13:08:30;;;;;;;8.17;2.93;;;7.10;99.90;;;;;;5089616;28;20200;-83
2021/12/08 13:11:00;;;;;;;6.37;3.30;;;7.10;99.90;;;;;;5066428;28;20203;-81
2021/12/08 13:13:28;;;;;;;7.57;2.80;;;7.10;99.90;;;;;;5070619;28;20295;-81
2021/12/08 13:15:55;;;;;;;4.50;2.70;;;7.20;99.90;;;;;;5090137;28;20238;-81
2021/12/08 13:18:23;;;;;;;5.70;2.50;;;7.10;99.90;;;;;;5091188;28;20687;-81
2021/12/08 13:20:58;;;;;;;6.27;2.80;;;7.00;99.90;;;;;;5070850;28;20232;-81
2021/12/08 13:23:29;;;;;;;6.00;3.77;;;7.00;99.90;;;;;;5087692;28;20704;-81
2021/12/08 13:26:17;;;;;;;4.33;2.87;;;6.90;99.90;;;;;;5085617;28;20206;-81
2021/12/08 13:28:51;;;;;;;6.67;2.70;;;6.80;99.90;;;;;;5091972;28;20219;-82
2021/12/08 13:34:05;;;;;;;6.73;3.60;;;6.80;99.90;;;;;;5076279;28;20212;-79
2021/12/08 13:36:39;;;;;;;10.43;3.13;;;6.90;99.90;;;;;;5075775;28;20207;-80
2021/12/08 13:39:11;;;;;;;6.50;2.37;;;6.90;99.90;;;;;;5089870;28;20203;-81
2021/12/08 13:41:41;;;;;;;9.07;3.13;;;6.80;99.90;;;;;;5095846;28;20262;-83
2021/12/08 13:44:34;;;;;;;8.07;2.90;;;6.90;99.90;;;;;;5089959;28;20259;-80
2021/12/08 13:47:07;;;;;;;5.13;2.97;;;6.80;99.90;;;;;;5088569;28;20239;-79
2021/12/08 13:49:48;;;;;;;6.10;2.90;;;6.80;99.90;;;;;;5073126;28;20234;-80
2021/12/08 13:52:18;;;;;;;8.90;2.90;;;6.90;99.90;;;;;;5070136;28;20234;-79
2021/12/08 13:54:54;;;;;;;7.90;3.50;;;6.90;99.90;;;;;;5071142;28;20230;-84
2021/12/08 13:57:33;;;;;;;5.03;3.10;;;6.90;99.90;;;;;;5085616;28;20201;-82
2021/12/08 14:00:17;;;;;;;8.87;3.37;;;6.90;99.90;;;;;;5084845;28;20212;-81
2021/12/08 14:03:02;;;;;;;6.27;2.87;;;6.90;99.90;;;;;;5086701;28;20236;-80
2021/12/08 14:06:11;;;;;;;4.27;2.77;;;6.90;99.90;;;;;;5083014;28;20209;-81
2021/12/08 14:08:43;;;;;;;6.30;2.90;;;6.90;99.90;;;;;;5064550;28;20319;-82
2021/12/08 14:11:14;;;;;;;6.67;3.07;;;7.00;99.90;;;;;;5088470;28;20268;-80